Photometre #859[NE_1.6] Durban_UKZN AOT

File : 20200927_859.hum

27/09/2020,04:21:14,TEMP=18.9,BA=5.48,STAT.h
27/09/2020,04:24:01,TEMP=18.9,BA=5.48,STAT.h
27/09/2020,04:24:10,TEMP=18.9,BA=5.48,STAT.h
27/09/2020,04:27:36,TEMP=18.9,BA=5.48,STAT.h
27/09/2020,04:30:01,TEMP=18.9,BA=5.48,STAT.h
27/09/2020,04:31:41,TEMP=18.9,BA=5.48,STAT.h
27/09/2020,04:33:01,TEMP=18.9,BA=5.48,STAT.h
27/09/2020,04:36:01,TEMP=18.9,BA=5.48,STAT.h
27/09/2020,04:36:35,TEMP=18.9,BA=5.48,STAT.h
27/09/2020,04:42:37,TEMP=18.9,BA=5.48,STAT.h
27/09/2020,04:45:01,TEMP=18.9,BA=5.48,STAT.h
27/09/2020,04:48:01,TEMP=18.9,BA=5.48,STAT.h
27/09/2020,04:50:13,TEMP=18.9,BA=5.48,STAT.h
27/09/2020,04:51:01,TEMP=18.9,BA=5.48,STAT.h
27/09/2020,04:54:06,TEMP=18.9,BA=5.48,STAT.h
27/09/2020,04:57:53,TEMP=18.9,BA=5.48,STAT.h
27/09/2020,05:00:01,TEMP=18.9,BA=5.48,STAT.h
27/09/2020,05:02:26,TEMP=18.9,BA=5.48,STAT.h
27/09/2020,05:03:01,TEMP=18.9,BA=5.48,STAT.h
27/09/2020,05:06:01,TEMP=18.9,BA=5.48,STAT.h
27/09/2020,05:07:35,TEMP=18.9,BA=5.48,STAT.h
27/09/2020,05:13:50,TEMP=15.2,BA=5.52,STAT.C=11.0,ExtBa=12.81
27/09/2020,05:20:39,TEMP=15.4,BA=5.52,STAT.A=11.0,ExtBa=12.75
27/09/2020,05:28:37,TEMP=15.5,BA=5.52,STAT.A=11.0,ExtBa=12.74
27/09/2020,05:38:04,TEMP=15.7,BA=5.48,STAT.A=11.0,ExtBa=12.75
27/09/2020,05:49:32,TEMP=15.7,BA=5.52,STAT.A=11.0,ExtBa=12.76
27/09/2020,06:00:22,TEMP=15.9,BA=5.52,STAT.D=11.0,ExtBa=12.77
27/09/2020,06:03:44,TEMP=16.0,BA=5.52,STAT.B=11.0,ExtBa=12.72
27/09/2020,06:15:22,TEMP=16.0,BA=5.52,STAT.D=11.0,ExtBa=12.76
27/09/2020,06:27:22,TEMP=15.9,BA=5.52,STAT.D=11.0,ExtBa=12.77
27/09/2020,06:33:16,TEMP=16.0,BA=5.52,STAT.B=11.0,ExtBa=12.75
27/09/2020,06:45:22,TEMP=16.0,BA=5.56,STAT.D=11.0,ExtBa=12.77
27/09/2020,06:47:34,TEMP=16.4,BA=5.56,STAT.F,ExtBa=12.69
27/09/2020,07:00:22,TEMP=16.3,BA=5.56,STAT.D=11.0,ExtBa=12.85
27/09/2020,07:02:32,TEMP=16.6,BA=5.56,STAT.D=11.0,ExtBa=12.76
27/09/2020,07:15:22,TEMP=16.1,BA=5.56,STAT.D=11.5,ExtBa=12.78
27/09/2020,07:17:32,TEMP=16.4,BA=5.56,STAT.D=11.0,ExtBa=12.71
27/09/2020,07:30:23,TEMP=16.1,BA=5.60,STAT.D=11.0,ExtBa=12.84
27/09/2020,07:32:33,TEMP=16.5,BA=5.60,STAT.D=11.0,ExtBa=12.75
27/09/2020,07:45:23,TEMP=16.4,BA=5.60,STAT.D=11.0,ExtBa=12.78
27/09/2020,07:47:34,TEMP=16.7,BA=5.60,STAT.F,ExtBa=12.69
27/09/2020,07:57:21,TEMP=16.2,BA=5.60,STAT.D=11.0,ExtBa=12.76
27/09/2020,08:02:33,TEMP=16.4,BA=5.60,STAT.D=11.0,ExtBa=12.73
27/09/2020,08:15:23,TEMP=16.4,BA=5.60,STAT.D=11.5,ExtBa=12.85
27/09/2020,08:17:33,TEMP=16.8,BA=5.60,STAT.D=11.0,ExtBa=12.76
27/09/2020,08:30:23,TEMP=16.9,BA=5.60,STAT.D=11.0,ExtBa=12.81
27/09/2020,08:32:33,TEMP=17.2,BA=5.60,STAT.D=11.0,ExtBa=12.74
27/09/2020,08:45:23,TEMP=17.1,BA=5.60,STAT.D=11.5,ExtBa=12.89
27/09/2020,08:47:35,TEMP=17.5,BA=5.60,STAT.F,ExtBa=12.85
27/09/2020,09:00:23,TEMP=17.6,BA=5.60,STAT.D=11.5,ExtBa=12.86
27/09/2020,09:02:34,TEMP=18.0,BA=5.60,STAT.D=11.0,ExtBa=12.79
27/09/2020,09:15:24,TEMP=17.8,BA=5.60,STAT.D=11.5,ExtBa=12.94
27/09/2020,09:17:34,TEMP=18.1,BA=5.60,STAT.D=11.0,ExtBa=12.83
27/09/2020,09:30:24,TEMP=17.7,BA=5.60,STAT.D=11.5,ExtBa=13.50
27/09/2020,09:33:01,TEMP=18.4,BA=5.60,STAT.D=11.0,ExtBa=12.94
27/09/2020,09:45:24,TEMP=18.3,BA=5.60,STAT.D=11.5,ExtBa=12.90
27/09/2020,09:47:36,TEMP=18.6,BA=5.60,STAT.F,ExtBa=12.79
27/09/2020,10:00:24,TEMP=18.1,BA=5.60,STAT.D=11.5,ExtBa=12.83
27/09/2020,10:02:34,TEMP=18.4,BA=5.60,STAT.D=11.0,ExtBa=12.78
27/09/2020,10:15:24,TEMP=17.8,BA=5.60,STAT.D=11.5,ExtBa=12.92
27/09/2020,10:17:34,TEMP=18.2,BA=5.60,STAT.D=11.0,ExtBa=12.83
27/09/2020,10:30:24,TEMP=17.8,BA=5.60,STAT.D=11.5,ExtBa=12.98
27/09/2020,10:32:33,TEMP=18.2,BA=5.60,STAT.D=11.0,ExtBa=12.87
27/09/2020,10:45:23,TEMP=17.6,BA=5.60,STAT.D=11.5,ExtBa=12.81
27/09/2020,10:47:35,TEMP=17.8,BA=5.60,STAT.F,ExtBa=12.71
27/09/2020,11:00:23,TEMP=16.9,BA=5.60,STAT.D=11.5,ExtBa=12.82
27/09/2020,11:02:33,TEMP=17.2,BA=5.60,STAT.D=11.0,ExtBa=12.74
27/09/2020,11:15:01,TEMP=17.3,BA=5.60,STAT.h
27/09/2020,11:17:11,TEMP=17.3,BA=5.60,STAT.h
27/09/2020,11:18:01,TEMP=17.3,BA=5.60,STAT.h
27/09/2020,11:21:01,TEMP=17.3,BA=5.60,STAT.h
27/09/2020,11:24:01,TEMP=17.3,BA=5.60,STAT.h
27/09/2020,11:27:01,TEMP=17.3,BA=5.60,STAT.h
27/09/2020,11:30:01,TEMP=17.3,BA=5.60,STAT.h
27/09/2020,11:32:11,TEMP=17.3,BA=5.60,STAT.h
27/09/2020,11:33:01,TEMP=17.3,BA=5.60,STAT.h
27/09/2020,11:36:01,TEMP=17.3,BA=5.60,STAT.h
27/09/2020,11:39:01,TEMP=17.3,BA=5.60,STAT.h
27/09/2020,11:42:01,TEMP=17.3,BA=5.60,STAT.h
27/09/2020,11:45:01,TEMP=17.3,BA=5.60,STAT.h
27/09/2020,11:47:11,TEMP=17.3,BA=5.60,STAT.h
27/09/2020,11:48:01,TEMP=17.3,BA=5.60,STAT.h
27/09/2020,11:51:01,TEMP=17.3,BA=5.60,STAT.h
27/09/2020,11:54:01,TEMP=17.3,BA=5.60,STAT.h
27/09/2020,11:57:05,TEMP=17.3,BA=5.60,STAT.h
27/09/2020,12:02:11,TEMP=17.3,BA=5.60,STAT.h
27/09/2020,12:03:01,TEMP=17.3,BA=5.60,STAT.h
27/09/2020,12:06:01,TEMP=17.3,BA=5.60,STAT.h
27/09/2020,12:09:01,TEMP=17.3,BA=5.60,STAT.h
27/09/2020,12:12:01,TEMP=17.3,BA=5.60,STAT.h
27/09/2020,12:15:01,TEMP=17.3,BA=5.60,STAT.h
27/09/2020,12:17:11,TEMP=17.3,BA=5.60,STAT.h
27/09/2020,12:18:01,TEMP=17.3,BA=5.60,STAT.h
27/09/2020,12:21:01,TEMP=17.3,BA=5.60,STAT.h
27/09/2020,12:24:01,TEMP=17.3,BA=5.60,STAT.h
27/09/2020,12:27:01,TEMP=17.3,BA=5.60,STAT.h
27/09/2020,12:30:01,TEMP=17.3,BA=5.60,STAT.h
27/09/2020,12:32:11,TEMP=17.3,BA=5.60,STAT.h
27/09/2020,12:33:01,TEMP=17.3,BA=5.60,STAT.h
27/09/2020,12:36:01,TEMP=17.3,BA=5.60,STAT.h
27/09/2020,12:39:01,TEMP=17.3,BA=5.60,STAT.h
27/09/2020,12:42:01,TEMP=17.3,BA=5.60,STAT.h
27/09/2020,12:45:01,TEMP=17.3,BA=5.60,STAT.h
27/09/2020,12:47:11,TEMP=17.3,BA=5.60,STAT.h
27/09/2020,12:48:01,TEMP=17.3,BA=5.60,STAT.h
27/09/2020,12:51:01,TEMP=17.3,BA=5.60,STAT.h
27/09/2020,12:54:01,TEMP=17.3,BA=5.60,STAT.h
27/09/2020,12:57:01,TEMP=17.3,BA=5.60,STAT.h
27/09/2020,13:00:01,TEMP=17.3,BA=5.60,STAT.h
27/09/2020,13:01:29,TEMP=17.3,BA=5.60,STAT.h
27/09/2020,13:03:01,TEMP=17.3,BA=5.60,STAT.h
27/09/2020,13:06:01,TEMP=17.3,BA=5.60,STAT.h
27/09/2020,13:09:01,TEMP=17.3,BA=5.60,STAT.h
27/09/2020,13:12:01,TEMP=17.3,BA=5.60,STAT.h
27/09/2020,13:15:01,TEMP=17.3,BA=5.60,STAT.h
27/09/2020,13:18:01,TEMP=17.3,BA=5.60,STAT.h
27/09/2020,13:21:01,TEMP=17.3,BA=5.60,STAT.h
27/09/2020,13:24:01,TEMP=17.3,BA=5.60,STAT.h
27/09/2020,13:27:01,TEMP=17.3,BA=5.60,STAT.h
27/09/2020,13:30:01,TEMP=17.3,BA=5.60,STAT.h
27/09/2020,13:31:00,TEMP=17.3,BA=5.60,STAT.h
27/09/2020,13:42:01,TEMP=17.3,BA=5.60,STAT.h
27/09/2020,13:45:01,TEMP=17.3,BA=5.60,STAT.h
27/09/2020,13:45:12,TEMP=17.3,BA=5.60,STAT.h
27/09/2020,13:48:01,TEMP=17.3,BA=5.60,STAT.h
27/09/2020,13:51:01,TEMP=17.3,BA=5.60,STAT.h
27/09/2020,13:54:01,TEMP=17.3,BA=5.60,STAT.h
27/09/2020,13:56:40,TEMP=17.3,BA=5.60,STAT.h
27/09/2020,14:06:01,TEMP=17.3,BA=5.60,STAT.h
27/09/2020,14:06:07,TEMP=17.3,BA=5.60,STAT.h
27/09/2020,14:09:01,TEMP=17.3,BA=5.60,STAT.h
27/09/2020,14:12:01,TEMP=17.3,BA=5.60,STAT.h
27/09/2020,14:14:05,TEMP=17.3,BA=5.60,STAT.h
27/09/2020,14:20:54,TEMP=17.3,BA=5.60,STAT.h
27/09/2020,14:21:01,TEMP=17.3,BA=5.60,STAT.h
27/09/2020,14:24:01,TEMP=17.3,BA=5.60,STAT.h
27/09/2020,14:26:47,TEMP=17.3,BA=5.60,STAT.h
27/09/2020,14:27:01,TEMP=17.3,BA=5.60,STAT.h
27/09/2020,14:30:01,TEMP=17.3,BA=5.60,STAT.h
27/09/2020,14:31:56,TEMP=17.3,BA=5.60,STAT.h
27/09/2020,14:33:01,TEMP=17.3,BA=5.60,STAT.h
27/09/2020,14:36:01,TEMP=17.3,BA=5.60,STAT.h
27/09/2020,14:36:29,TEMP=17.3,BA=5.60,STAT.h
27/09/2020,14:39:01,TEMP=17.3,BA=5.60,STAT.h
27/09/2020,14:40:32,TEMP=17.3,BA=5.60,STAT.h
27/09/2020,14:42:01,TEMP=17.3,BA=5.60,STAT.h
27/09/2020,14:44:09,TEMP=17.3,BA=5.60,STAT.h
27/09/2020,14:45:01,TEMP=17.3,BA=5.60,STAT.h
27/09/2020,14:48:01,TEMP=17.3,BA=5.60,STAT.h
27/09/2020,14:51:01,TEMP=17.3,BA=5.60,STAT.h
27/09/2020,14:51:45,TEMP=17.3,BA=5.60,STAT.h
27/09/2020,14:52:11,TEMP=17.3,BA=5.60,STAT.h
27/09/2020,14:54:01,TEMP=17.3,BA=5.60,STAT.h
27/09/2020,14:57:01,TEMP=17.3,BA=5.60,STAT.h
27/09/2020,14:57:47,TEMP=17.3,BA=5.60,STAT.h
27/09/2020,15:00:01,TEMP=17.3,BA=5.60,STAT.h
27/09/2020,15:02:41,TEMP=17.3,BA=5.60,STAT.h
27/09/2020,15:03:01,TEMP=17.3,BA=5.60,STAT.h
27/09/2020,15:06:01,TEMP=17.3,BA=5.60,STAT.h
27/09/2020,15:06:46,TEMP=17.3,BA=5.60,STAT.h
27/09/2020,15:09:01,TEMP=17.3,BA=5.60,STAT.h
27/09/2020,15:10:12,TEMP=17.3,BA=5.60,STAT.h
27/09/2020,15:12:01,TEMP=17.3,BA=5.60,STAT.h
27/09/2020,15:13:08,TEMP=17.3,BA=5.60,STAT.h